createdAt,value
2022-12-26T00:01:14.339Z,76877.50
2022-12-26T00:03:42.268Z,76840.09
2022-12-26T00:06:14.649Z,76817.22
2022-12-26T00:08:43.191Z,76808.91
2022-12-26T00:11:12.379Z,76806.81
2022-12-26T00:13:41.980Z,76819.28
2022-12-26T00:16:14.182Z,76819.28
2022-12-26T00:18:42.478Z,76827.59
2022-12-26T00:21:13.325Z,76844.25
2022-12-26T00:23:42.036Z,76806.81
2022-12-26T00:26:12.574Z,76815.13
2022-12-26T00:28:40.832Z,76819.28
2022-12-26T00:31:11.403Z,76827.59
2022-12-26T00:33:41.189Z,76835.94
2022-12-26T00:36:12.946Z,76848.41
2022-12-26T00:38:42.950Z,76835.94
2022-12-26T00:41:12.546Z,76825.53
2022-12-26T00:43:40.627Z,76802.66
2022-12-26T00:46:09.802Z,76773.53
2022-12-26T00:48:37.934Z,76761.06
2022-12-26T00:51:07.574Z,76744.44
2022-12-26T00:53:35.812Z,76723.66
2022-12-26T00:56:04.135Z,76704.94
2022-12-26T00:58:32.229Z,76700.78
2022-12-26T01:01:07.611Z,76694.53
2022-12-26T01:03:35.817Z,76694.53
2022-12-26T01:06:05.231Z,76686.22
2022-12-26T01:08:34.847Z,76661.25
2022-12-26T01:11:06.882Z,76655.03
2022-12-26T01:13:35.516Z,76644.63
2022-12-26T01:16:05.259Z,76621.75
2022-12-26T01:18:33.458Z,76632.16
2022-12-26T01:21:03.550Z,76636.31
2022-12-26T01:23:31.550Z,76638.41
2022-12-26T01:26:16.491Z,76628.00
2022-12-26T01:28:48.329Z,76623.84
2022-12-26T01:31:17.016Z,76615.53
2022-12-26T01:33:45.355Z,76603.03
2022-12-26T01:36:14.098Z,76578.09
2022-12-26T01:38:42.099Z,76567.69
2022-12-26T01:41:20.083Z,76573.94
2022-12-26T01:43:59.917Z,76596.81
2022-12-26T01:46:33.394Z,76634.22
2022-12-26T01:49:07.668Z,76698.69
2022-12-26T01:51:39.709Z,76715.31
2022-12-26T01:54:39.366Z,76744.44
2022-12-26T01:57:02.687Z,76754.84
2022-12-26T01:59:34.407Z,76786.03
2022-12-26T02:02:03.135Z,76798.50
2022-12-26T02:04:55.743Z,76804.72
2022-12-26T02:07:24.989Z,76756.91
2022-12-26T02:09:53.554Z,76719.47
2022-12-26T02:12:34.443Z,76702.84
2022-12-26T02:15:08.805Z,76723.66
2022-12-26T02:17:37.783Z,76723.66
2022-12-26T02:20:17.076Z,76731.97
2022-12-26T02:23:20.295Z,76740.28
2022-12-26T02:26:18.367Z,76744.44
2022-12-26T02:29:21.215Z,76723.66
2022-12-26T02:32:01.864Z,76719.47
2022-12-26T02:34:38.853Z,76702.84
2022-12-26T02:37:24.070Z,76688.28
2022-12-26T02:40:05.049Z,76686.22
2022-12-26T02:42:43.890Z,76682.06
2022-12-26T02:45:37.388Z,76663.34
2022-12-26T02:48:14.591Z,76628.00
2022-12-26T02:51:12.543Z,76598.88
2022-12-26T02:54:06.350Z,76586.41
2022-12-26T02:57:02.479Z,76582.25
2022-12-26T02:59:57.696Z,76590.56
2022-12-26T03:02:49.798Z,76584.34
2022-12-26T03:05:43.514Z,76592.66
2022-12-26T03:08:43.893Z,76607.22
2022-12-26T03:11:29.438Z,76555.22
2022-12-26T03:14:06.465Z,76524.03
2022-12-26T03:16:53.232Z,76505.31
2022-12-26T03:19:24.592Z,76499.09
2022-12-26T03:21:54.158Z,76513.63
2022-12-26T03:24:23.809Z,76517.81
2022-12-26T03:26:54.040Z,76544.84
2022-12-26T03:29:42.284Z,76607.22
2022-12-26T03:32:13.290Z,76623.84
2022-12-26T03:34:43.400Z,76657.09
2022-12-26T03:37:48.822Z,76694.53
2022-12-26T03:40:59.403Z,76707.00
2022-12-26T03:44:02.118Z,76754.84
2022-12-26T03:46:54.014Z,76744.44
2022-12-26T03:49:44.303Z,76746.50
2022-12-26T03:52:37.070Z,76736.13
2022-12-26T03:55:32.970Z,76715.31
2022-12-26T03:58:24.681Z,76665.44
2022-12-26T04:01:13.415Z,76657.09
2022-12-26T04:04:02.368Z,76686.22
2022-12-26T04:06:54.911Z,76702.84
2022-12-26T04:09:43.467Z,76702.84
2022-12-26T04:12:38.235Z,76719.47
2022-12-26T04:15:30.338Z,76715.31
2022-12-26T04:18:20.873Z,76698.69
2022-12-26T04:21:03.319Z,76682.06
2022-12-26T04:23:56.297Z,76673.75
2022-12-26T04:26:46.625Z,76686.22
2022-12-26T04:29:33.803Z,76690.38
2022-12-26T04:32:24.045Z,76669.59
2022-12-26T04:35:15.682Z,76661.25
2022-12-26T04:38:04.403Z,76650.88
2022-12-26T04:40:55.898Z,76632.16
2022-12-26T04:43:47.504Z,76617.59
2022-12-26T04:46:23.803Z,76603.03
2022-12-26T04:49:12.188Z,76576.00
2022-12-26T04:51:40.551Z,76565.63
2022-12-26T04:54:09.369Z,76540.66
2022-12-26T04:56:37.333Z,76519.88
2022-12-26T04:59:05.879Z,76511.56
2022-12-26T05:01:52.512Z,76482.44
2022-12-26T05:04:47.005Z,76476.22
2022-12-26T05:07:36.475Z,76486.63
2022-12-26T05:10:06.545Z,76503.25
2022-12-26T05:12:34.470Z,76474.13
2022-12-26T05:15:03.070Z,76457.50
2022-12-26T05:17:49.651Z,76442.94
2022-12-26T05:20:44.334Z,76440.88
2022-12-26T05:23:37.294Z,76430.47
2022-12-26T05:26:23.799Z,76403.44
2022-12-26T05:28:57.393Z,76442.94
2022-12-26T05:31:31.144Z,76511.56
2022-12-26T05:34:05.923Z,76573.94
2022-12-26T05:36:38.707Z,76632.16
2022-12-26T05:39:08.313Z,76661.25
2022-12-26T05:41:36.734Z,76661.25
2022-12-26T05:44:05.034Z,76632.16
2022-12-26T05:46:34.317Z,76665.44
2022-12-26T05:49:04.471Z,76669.59
2022-12-26T05:51:33.017Z,76661.25
2022-12-26T05:54:01.241Z,76669.59
2022-12-26T05:56:29.839Z,76644.63
2022-12-26T05:58:59.058Z,76555.22
2022-12-26T06:01:29.294Z,76519.88
2022-12-26T06:03:59.328Z,76486.63
2022-12-26T06:06:29.633Z,76453.34
2022-12-26T06:08:58.340Z,76432.56
2022-12-26T06:11:27.336Z,76422.16
2022-12-26T06:13:56.204Z,76488.69
2022-12-26T06:16:24.796Z,76544.84
2022-12-26T06:18:53.151Z,76615.53
2022-12-26T06:21:21.997Z,76648.78
2022-12-26T06:23:51.696Z,76655.03
2022-12-26T06:26:19.973Z,76650.88
2022-12-26T06:28:47.987Z,76640.47
2022-12-26T06:31:20.631Z,76605.13
2022-12-26T06:33:49.527Z,76586.41
2022-12-26T06:36:20.819Z,76580.19
2022-12-26T06:38:49.027Z,76569.78
2022-12-26T06:41:21.784Z,76551.06
2022-12-26T06:43:50.275Z,76511.56
2022-12-26T06:46:21.586Z,76451.28
2022-12-26T06:48:49.613Z,76428.41
2022-12-26T06:51:20.254Z,76422.16
2022-12-26T06:53:49.026Z,76409.69
2022-12-26T06:56:20.392Z,76397.22
2022-12-26T06:58:48.980Z,76397.22
2022-12-26T07:01:19.098Z,76390.97
2022-12-26T07:03:51.572Z,76395.13
2022-12-26T07:06:25.004Z,76399.28
2022-12-26T07:08:53.975Z,76390.97
2022-12-26T07:11:25.176Z,76390.97
2022-12-26T07:13:54.552Z,76374.34
2022-12-26T07:16:23.182Z,76370.19
2022-12-26T07:18:53.913Z,76386.81
2022-12-26T07:21:23.070Z,76378.50
2022-12-26T07:23:51.461Z,76388.91
2022-12-26T07:26:20.526Z,76361.88
2022-12-26T07:28:49.922Z,76353.56
2022-12-26T07:31:18.687Z,76336.91
2022-12-26T07:33:49.474Z,76291.19
2022-12-26T07:36:18.409Z,76253.75
2022-12-26T07:38:46.985Z,76208.00
2022-12-26T07:41:32.923Z,76133.19
2022-12-26T07:44:02.531Z,76064.56
2022-12-26T07:46:30.957Z,76000.13
2022-12-26T07:48:59.062Z,75952.31
2022-12-26T07:51:28.159Z,75925.28
2022-12-26T07:53:56.666Z,75900.34
2022-12-26T07:56:25.144Z,75871.22
2022-12-26T07:58:53.309Z,75871.22
2022-12-26T08:01:23.340Z,75867.06
2022-12-26T08:03:52.173Z,75858.75
2022-12-26T08:06:21.120Z,75860.84
2022-12-26T08:08:51.370Z,75840.06
2022-12-26T08:11:23.191Z,75827.56
2022-12-26T08:13:51.804Z,75921.13
2022-12-26T08:16:20.802Z,75987.66
2022-12-26T08:18:50.422Z,76085.34
2022-12-26T08:21:18.948Z,76170.59
2022-12-26T08:23:48.280Z,76270.38
2022-12-26T08:26:22.338Z,76353.56
2022-12-26T08:28:51.845Z,76399.28
2022-12-26T08:31:21.736Z,76415.91
2022-12-26T08:33:51.242Z,76449.19
2022-12-26T08:36:19.528Z,76455.44
2022-12-26T08:38:47.618Z,76478.28
2022-12-26T08:41:17.463Z,76478.28
2022-12-26T08:46:38.241Z,76449.19
2022-12-26T08:49:08.184Z,76457.50
2022-12-26T08:51:36.763Z,76449.19
2022-12-26T08:54:05.246Z,76453.34
2022-12-26T08:56:33.797Z,76455.44
2022-12-26T08:59:01.748Z,76440.88
2022-12-26T09:01:32.018Z,76432.56
2022-12-26T09:04:02.176Z,76415.91
2022-12-26T09:06:33.516Z,76407.59
2022-12-26T09:09:02.243Z,76388.91
2022-12-26T09:11:31.050Z,76382.66
2022-12-26T09:14:02.078Z,76374.34
2022-12-26T09:16:37.810Z,76355.63
2022-12-26T09:19:07.761Z,76345.22
2022-12-26T09:21:37.411Z,76334.84
2022-12-26T09:24:07.353Z,76326.53
2022-12-26T09:26:35.795Z,76326.53
2022-12-26T09:29:04.227Z,76311.97
2022-12-26T09:31:34.674Z,76295.34
2022-12-26T09:34:03.781Z,76291.19
2022-12-26T09:36:33.902Z,76291.19
2022-12-26T09:39:03.194Z,76291.19
2022-12-26T09:41:54.505Z,76291.19
2022-12-26T09:44:29.274Z,76289.09
2022-12-26T09:47:16.299Z,76287.03
2022-12-26T09:49:51.786Z,76282.88
2022-12-26T09:52:24.338Z,76282.88
2022-12-26T09:54:57.428Z,76262.06
2022-12-26T09:57:35.335Z,76274.53
2022-12-26T10:00:06.826Z,76255.84
2022-12-26T10:02:35.970Z,76232.97
2022-12-26T10:05:04.067Z,76220.50
2022-12-26T10:07:40.122Z,76218.41
2022-12-26T10:10:13.250Z,76170.59
2022-12-26T10:12:54.320Z,76170.59
2022-12-26T10:15:35.783Z,76156.03
2022-12-26T10:18:15.335Z,76112.38
2022-12-26T10:20:55.352Z,76064.56
2022-12-26T10:23:43.155Z,76014.69
2022-12-26T10:26:18.924Z,75975.19
2022-12-26T10:28:51.810Z,75937.75
2022-12-26T10:31:25.828Z,75923.19
2022-12-26T10:33:59.595Z,75912.81
2022-12-26T10:36:34.555Z,75887.88
2022-12-26T10:39:06.040Z,75900.34
2022-12-26T10:41:42.758Z,75871.22
2022-12-26T10:44:13.157Z,75846.28
2022-12-26T10:47:01.316Z,75788.09
2022-12-26T10:49:29.775Z,75746.50
2022-12-26T10:52:00.442Z,75707.00
2022-12-26T10:54:30.767Z,75696.63
2022-12-26T10:57:01.278Z,75686.22
2022-12-26T10:59:39.841Z,75650.88
2022-12-26T11:02:22.754Z,75638.41
2022-12-26T11:05:18.400Z,75625.94
2022-12-26T11:07:58.555Z,75617.63
2022-12-26T11:10:30.222Z,75576.06
2022-12-26T11:13:02.468Z,75563.56
2022-12-26T11:15:35.256Z,75553.19
2022-12-26T11:18:20.828Z,75538.63
2022-12-26T11:20:50.737Z,75519.94
2022-12-26T11:23:24.440Z,75522.00
2022-12-26T11:25:54.972Z,75530.31
2022-12-26T11:28:34.219Z,75530.31
2022-12-26T11:31:06.247Z,75509.53
2022-12-26T11:33:37.895Z,75494.97
2022-12-26T11:36:12.887Z,75505.38
2022-12-26T11:38:51.630Z,75497.06
2022-12-26T11:41:34.903Z,75509.53
2022-12-26T11:44:18.684Z,75522.00
2022-12-26T11:46:52.494Z,75536.56
2022-12-26T11:49:26.724Z,75549.03
2022-12-26T11:51:59.548Z,75557.34
2022-12-26T11:54:34.912Z,75546.94
2022-12-26T11:57:14.283Z,75542.78
2022-12-26T11:59:43.768Z,75542.78
2022-12-26T12:02:25.846Z,75517.84
2022-12-26T12:04:58.056Z,75522.00
2022-12-26T12:07:33.227Z,75526.16
2022-12-26T12:10:08.522Z,75505.38
2022-12-26T12:12:44.127Z,75511.63
2022-12-26T12:15:20.786Z,75517.84
2022-12-26T12:17:57.004Z,75513.69
2022-12-26T12:20:33.359Z,75517.84
2022-12-26T12:23:34.954Z,75501.22
2022-12-26T12:26:10.660Z,75499.13
2022-12-26T12:29:00.716Z,75499.13
2022-12-26T12:31:42.567Z,75492.91
2022-12-26T12:34:24.058Z,75480.44
2022-12-26T12:37:02.742Z,75476.28
2022-12-26T12:39:46.359Z,75457.56
2022-12-26T12:42:28.105Z,75463.81
2022-12-26T12:45:18.439Z,75459.66
2022-12-26T12:48:02.015Z,75455.50
2022-12-26T12:50:38.003Z,75467.97
2022-12-26T12:53:19.257Z,75472.13
2022-12-26T12:56:10.458Z,75480.44
2022-12-26T12:58:48.795Z,75472.13
2022-12-26T13:01:21.880Z,75476.28
2022-12-26T13:03:57.811Z,75484.59
2022-12-26T13:06:30.727Z,75488.75
2022-12-26T13:09:02.469Z,75488.75
2022-12-26T13:11:36.032Z,75478.34
2022-12-26T13:14:08.869Z,75472.13
2022-12-26T13:16:47.459Z,75482.50
2022-12-26T13:19:22.073Z,75492.91
2022-12-26T13:21:52.670Z,75476.28
2022-12-26T13:24:29.145Z,75484.59
2022-12-26T13:27:03.666Z,75478.34
2022-12-26T13:29:40.591Z,75486.66
2022-12-26T13:32:18.456Z,75497.06
2022-12-26T13:34:48.718Z,75517.84
2022-12-26T13:37:55.169Z,75522.00
2022-12-26T13:40:27.108Z,75522.00
2022-12-26T13:43:16.643Z,75544.88
2022-12-26T13:45:56.493Z,75530.31
2022-12-26T13:49:08.049Z,75526.16
2022-12-26T13:51:52.418Z,75530.31
2022-12-26T13:54:22.196Z,75530.31
2022-12-26T13:57:21.413Z,75530.31
2022-12-26T14:00:16.078Z,75544.88
2022-12-26T14:03:19.490Z,75551.09
2022-12-26T14:06:08.311Z,75544.88
2022-12-26T14:08:54.569Z,75555.25
2022-12-26T14:11:43.854Z,75573.97
2022-12-26T14:14:26.667Z,75582.28
2022-12-26T14:17:03.869Z,75578.13
2022-12-26T14:19:44.673Z,75576.06
2022-12-26T14:22:21.894Z,75578.13
2022-12-26T14:25:05.813Z,75584.38
2022-12-26T14:27:40.406Z,75596.84
2022-12-26T14:30:22.313Z,75588.53
2022-12-26T14:33:03.695Z,75596.84
2022-12-26T14:35:38.746Z,75592.69
2022-12-26T14:38:23.926Z,75584.38
2022-12-26T14:41:04.647Z,75588.53
2022-12-26T14:43:35.124Z,75582.28
2022-12-26T14:46:06.471Z,75561.50
2022-12-26T14:48:58.545Z,75557.34
2022-12-26T14:51:33.471Z,75555.25
2022-12-26T14:54:35.281Z,75546.94
2022-12-26T14:57:33.549Z,75549.03
2022-12-26T15:00:41.457Z,75551.09
2022-12-26T15:03:44.642Z,75542.78
2022-12-26T15:06:49.290Z,75551.09
2022-12-26T15:09:56.845Z,75551.09
2022-12-26T15:12:59.012Z,75540.72
2022-12-26T15:15:33.285Z,75546.94
2022-12-26T15:18:42.740Z,75559.41
2022-12-26T15:21:31.142Z,75559.41
2022-12-26T15:25:17.058Z,75536.56
2022-12-26T15:27:48.654Z,75538.63
2022-12-26T15:30:21.560Z,75557.34
2022-12-26T15:33:00.603Z,75555.25
2022-12-26T15:35:34.674Z,75546.94
2022-12-26T15:38:27.052Z,75549.03
2022-12-26T15:40:59.634Z,75536.56
2022-12-26T15:43:45.600Z,75532.41
2022-12-26T15:46:22.015Z,75542.78
2022-12-26T15:49:08.077Z,75542.78
2022-12-26T15:51:55.604Z,75546.94
2022-12-26T15:54:52.882Z,75538.63
2022-12-26T15:57:30.297Z,75551.09
2022-12-26T16:00:14.719Z,75538.63
2022-12-26T16:02:49.955Z,75538.63
2022-12-26T16:05:35.811Z,75524.09
2022-12-26T16:08:17.176Z,75522.00
2022-12-26T16:10:52.602Z,75526.16
2022-12-26T16:13:24.484Z,75534.47
2022-12-26T16:15:56.763Z,75530.31
2022-12-26T16:18:28.354Z,75528.25
2022-12-26T16:21:31.575Z,75540.72
2022-12-26T16:23:59.993Z,75555.25
2022-12-26T16:26:33.303Z,75538.63
2022-12-26T16:29:02.200Z,75553.19
2022-12-26T16:31:31.622Z,75546.94
2022-12-26T16:34:01.104Z,75551.09
2022-12-26T16:36:30.914Z,75551.09
2022-12-26T16:38:59.406Z,75540.72
2022-12-26T16:41:31.266Z,75551.09
2022-12-26T16:44:30.554Z,75557.34
2022-12-26T16:47:03.278Z,75555.25
2022-12-26T16:49:32.949Z,75576.06
2022-12-26T16:52:01.887Z,75578.13
2022-12-26T16:54:37.543Z,75578.13
2022-12-26T16:57:14.517Z,75578.13
2022-12-26T16:59:51.774Z,75590.59
2022-12-26T17:02:25.932Z,75605.16
2022-12-26T17:05:00.087Z,75623.84
2022-12-26T17:07:29.358Z,75634.25
2022-12-26T17:10:00.603Z,75638.41
2022-12-26T17:12:32.623Z,75657.13
2022-12-26T17:15:02.565Z,75663.34
2022-12-26T17:17:34.834Z,75686.22
2022-12-26T17:20:33.321Z,75711.16
2022-12-26T17:23:01.632Z,75727.78
2022-12-26T17:25:33.432Z,75746.50
2022-12-26T17:28:31.633Z,75756.91
2022-12-26T17:31:13.717Z,75767.28
2022-12-26T17:33:47.913Z,75775.59
2022-12-26T17:39:21.925Z,75771.44
2022-12-26T17:41:54.901Z,75790.16
2022-12-26T17:44:40.551Z,75808.88
2022-12-26T17:47:17.997Z,75815.09
2022-12-26T17:49:48.311Z,75804.72
2022-12-26T17:52:18.897Z,75796.41
2022-12-26T17:54:49.091Z,75810.94
2022-12-26T17:57:20.797Z,75840.06
2022-12-26T17:59:49.745Z,75821.34
2022-12-26T18:02:18.101Z,75835.88
2022-12-26T18:04:48.612Z,75825.50
2022-12-26T18:07:22.215Z,75825.50
2022-12-26T18:09:53.753Z,75846.28
2022-12-26T18:12:21.992Z,75846.28
2022-12-26T18:14:49.925Z,75844.22
2022-12-26T18:17:19.219Z,75833.81
2022-12-26T18:19:49.400Z,75813.03
2022-12-26T18:22:20.030Z,75817.19
2022-12-26T18:24:48.279Z,75815.09
2022-12-26T18:27:19.752Z,75823.41
2022-12-26T18:29:49.552Z,75823.41
2022-12-26T18:32:24.582Z,75823.41
2022-12-26T18:34:54.106Z,75813.03
2022-12-26T18:37:23.329Z,75804.72
2022-12-26T18:39:51.406Z,75810.94
2022-12-26T18:42:20.422Z,75817.19
2022-12-26T18:44:48.542Z,75810.94
2022-12-26T18:47:18.580Z,75808.88
2022-12-26T18:49:47.028Z,75821.34
2022-12-26T18:52:17.648Z,75813.03
2022-12-26T18:54:46.215Z,75808.88
2022-12-26T18:57:19.239Z,75806.78
2022-12-26T18:59:48.470Z,75819.25
2022-12-26T19:02:18.723Z,75806.78
2022-12-26T19:04:48.813Z,75792.25
2022-12-26T19:07:21.068Z,75783.91
2022-12-26T19:09:50.663Z,75792.25
2022-12-26T19:12:19.396Z,75788.09
2022-12-26T19:14:48.314Z,75792.25
2022-12-26T19:17:16.877Z,75806.78
2022-12-26T19:19:45.237Z,75804.72
2022-12-26T19:22:13.492Z,75800.56
2022-12-26T19:24:42.762Z,75788.09
2022-12-26T19:27:11.262Z,75786.00
2022-12-26T19:29:39.282Z,75796.41
2022-12-26T19:32:07.484Z,75800.56
2022-12-26T19:34:35.610Z,75825.50
2022-12-26T19:37:04.081Z,75846.28
2022-12-26T19:39:31.990Z,75867.06
2022-12-26T19:42:01.687Z,75871.22
2022-12-26T19:44:30.239Z,75896.19
2022-12-26T19:47:11.557Z,75894.09
2022-12-26T19:49:41.360Z,75906.56
2022-12-26T19:52:09.747Z,75916.97
2022-12-26T19:54:37.903Z,75912.81
2022-12-26T19:57:07.926Z,75912.81
2022-12-26T19:59:36.170Z,75904.50
2022-12-26T20:02:05.078Z,75881.63
2022-12-26T20:04:33.393Z,75887.88
2022-12-26T20:07:02.369Z,75871.22
2022-12-26T20:09:30.389Z,75858.75
2022-12-26T20:11:58.915Z,75850.44
2022-12-26T20:14:28.944Z,75856.69
2022-12-26T20:17:07.159Z,75852.53
2022-12-26T20:19:37.525Z,75842.13
2022-12-26T20:22:07.228Z,75846.28
2022-12-26T20:24:35.743Z,75852.53
2022-12-26T20:27:04.758Z,75846.28
2022-12-26T20:29:34.287Z,75858.75
2022-12-26T20:32:02.506Z,75862.91
2022-12-26T20:34:30.787Z,75850.44
2022-12-26T20:36:59.048Z,75825.50
2022-12-26T20:39:27.201Z,75817.19
2022-12-26T20:41:55.551Z,75829.66
2022-12-26T20:44:24.402Z,75837.97
2022-12-26T20:46:54.141Z,75846.28
2022-12-26T20:49:22.875Z,75867.06
2022-12-26T20:51:51.075Z,75875.38
2022-12-26T20:54:18.978Z,75883.72
2022-12-26T20:56:47.480Z,75887.88
2022-12-26T20:59:15.441Z,75900.34
2022-12-26T21:01:43.820Z,75919.03
2022-12-26T21:04:18.604Z,75929.44
2022-12-26T21:06:49.449Z,75927.38
2022-12-26T21:09:17.843Z,75937.75
2022-12-26T21:11:46.410Z,75935.69
2022-12-26T21:14:17.733Z,75925.28
2022-12-26T21:16:48.746Z,75916.97
2022-12-26T21:19:19.496Z,75883.72
2022-12-26T21:21:50.727Z,75879.56
2022-12-26T21:24:20.864Z,75887.88
2022-12-26T21:26:49.615Z,75867.06
2022-12-26T21:29:19.951Z,75858.75
2022-12-26T21:31:48.740Z,75871.22
2022-12-26T21:34:21.186Z,75883.72
2022-12-26T21:37:04.105Z,75896.19
2022-12-26T21:39:32.938Z,75889.94
2022-12-26T21:42:01.928Z,75900.34
2022-12-26T21:44:30.315Z,75904.50
2022-12-26T21:46:58.964Z,75889.94
2022-12-26T21:49:28.962Z,75879.56
2022-12-26T21:51:57.313Z,75875.38
2022-12-26T21:54:48.732Z,75858.75
2022-12-26T21:57:17.699Z,75862.91
2022-12-26T21:59:58.085Z,75865.00
2022-12-26T22:02:47.450Z,75883.72
2022-12-26T22:05:18.839Z,75912.81
2022-12-26T22:07:48.134Z,75925.28
2022-12-26T22:10:30.388Z,75933.59
2022-12-26T22:12:58.663Z,75925.28
2022-12-26T22:15:44.682Z,75937.75
2022-12-26T22:18:13.218Z,75929.44
2022-12-26T22:20:44.542Z,75935.69
2022-12-26T22:23:13.389Z,75925.28
2022-12-26T22:25:41.306Z,75921.13
2022-12-26T22:28:09.686Z,75925.28
2022-12-26T22:30:37.618Z,75929.44
2022-12-26T22:33:05.834Z,75912.81
2022-12-26T22:35:34.418Z,75889.94
2022-12-26T22:38:03.980Z,75902.41
2022-12-26T22:40:32.136Z,75904.50
2022-12-26T22:43:00.725Z,75908.66
2022-12-26T22:45:28.742Z,75916.97
2022-12-26T22:47:56.883Z,75929.44
2022-12-26T22:50:25.050Z,75916.97
2022-12-26T22:52:53.251Z,75935.69
2022-12-26T22:55:22.924Z,75937.75
2022-12-26T22:57:53.034Z,75929.44
2022-12-26T23:00:21.964Z,75916.97
2022-12-26T23:02:50.236Z,75923.19
2022-12-26T23:05:18.922Z,75929.44
2022-12-26T23:07:47.599Z,75931.53
2022-12-26T23:10:21.074Z,75923.19
2022-12-26T23:12:51.803Z,75923.19
2022-12-26T23:15:21.815Z,75912.81
2022-12-26T23:18:13.395Z,75921.13
2022-12-26T23:20:59.259Z,75914.88
2022-12-26T23:23:28.025Z,75916.97
2022-12-26T23:25:56.033Z,75912.81
2022-12-26T23:28:43.420Z,75900.34
2022-12-26T23:31:11.545Z,75896.19
2022-12-26T23:33:39.721Z,75906.56
2022-12-26T23:36:08.767Z,75894.09
2022-12-26T23:38:37.157Z,75900.34
2022-12-26T23:41:05.485Z,75894.09
2022-12-26T23:43:35.288Z,75892.03
2022-12-26T23:46:08.576Z,75896.19
2022-12-26T23:48:36.801Z,75889.94
2022-12-26T23:51:06.871Z,75896.19
2022-12-26T23:53:36.249Z,75896.19
2022-12-26T23:56:08.056Z,75892.03
2022-12-26T23:58:37.764Z,75875.38
